sensor_id;sensor_type;location;lat;lon;timestamp;P1;durP1;ratioP1;P2;durP2;ratioP2
73550;SDS011;61816;53.582;10.096;2022-10-31T00:03:40;76.28;;;39.33;;
73550;SDS011;61816;53.582;10.096;2022-10-31T00:06:05;66.35;;;35.97;;
73550;SDS011;61816;53.582;10.096;2022-10-31T00:08:31;71.18;;;35.17;;
73550;SDS011;61816;53.582;10.096;2022-10-31T00:10:56;69.78;;;39.10;;
73550;SDS011;61816;53.582;10.096;2022-10-31T00:13:22;82.75;;;41.60;;
73550;SDS011;61816;53.582;10.096;2022-10-31T00:15:47;80.80;;;41.55;;
73550;SDS011;61816;53.582;10.096;2022-10-31T00:18:12;90.32;;;45.28;;
73550;SDS011;61816;53.582;10.096;2022-10-31T00:20:38;74.25;;;41.00;;
73550;SDS011;61816;53.582;10.096;2022-10-31T00:23:04;58.72;;;33.40;;
73550;SDS011;61816;53.582;10.096;2022-10-31T00:25:33;73.40;;;33.13;;
73550;SDS011;61816;53.582;10.096;2022-10-31T00:28:00;67.90;;;38.83;;
73550;SDS011;61816;53.582;10.096;2022-10-31T00:30:26;64.18;;;36.28;;
73550;SDS011;61816;53.582;10.096;2022-10-31T00:32:51;61.10;;;32.70;;
73550;SDS011;61816;53.582;10.096;2022-10-31T00:35:17;71.47;;;38.05;;
73550;SDS011;61816;53.582;10.096;2022-10-31T00:37:42;70.60;;;38.40;;
73550;SDS011;61816;53.582;10.096;2022-10-31T00:40:08;55.17;;;31.05;;
73550;SDS011;61816;53.582;10.096;2022-10-31T00:42:34;57.80;;;32.08;;
73550;SDS011;61816;53.582;10.096;2022-10-31T00:44:59;75.40;;;37.40;;
73550;SDS011;61816;53.582;10.096;2022-10-31T00:47:24;62.55;;;31.88;;
73550;SDS011;61816;53.582;10.096;2022-10-31T00:49:49;55.30;;;31.50;;
73550;SDS011;61816;53.582;10.096;2022-10-31T00:52:15;70.65;;;37.08;;
73550;SDS011;61816;53.582;10.096;2022-10-31T00:54:40;60.10;;;31.33;;
73550;SDS011;61816;53.582;10.096;2022-10-31T00:57:05;57.10;;;34.50;;
73550;SDS011;61816;53.582;10.096;2022-10-31T00:59:31;65.95;;;35.92;;
73550;SDS011;61816;53.582;10.096;2022-10-31T01:01:56;57.47;;;32.58;;
73550;SDS011;61816;53.582;10.096;2022-10-31T01:04:21;61.45;;;35.20;;
73550;SDS011;61816;53.582;10.096;2022-10-31T01:06:47;63.13;;;36.22;;
73550;SDS011;61816;53.582;10.096;2022-10-31T01:09:12;65.82;;;36.03;;
73550;SDS011;61816;53.582;10.096;2022-10-31T01:11:37;58.55;;;28.58;;
73550;SDS011;61816;53.582;10.096;2022-10-31T01:14:03;49.28;;;28.40;;
73550;SDS011;61816;53.582;10.096;2022-10-31T01:16:28;60.38;;;33.22;;
73550;SDS011;61816;53.582;10.096;2022-10-31T01:18:54;56.88;;;31.15;;
73550;SDS011;61816;53.582;10.096;2022-10-31T01:21:24;60.22;;;33.08;;
73550;SDS011;61816;53.582;10.096;2022-10-31T01:23:55;61.78;;;33.85;;
73550;SDS011;61816;53.582;10.096;2022-10-31T01:26:21;60.85;;;33.50;;
73550;SDS011;61816;53.582;10.096;2022-10-31T01:31:19;62.85;;;32.58;;
73550;SDS011;61816;53.582;10.096;2022-10-31T01:33:46;54.35;;;28.92;;
73550;SDS011;61816;53.582;10.096;2022-10-31T01:36:22;68.90;;;33.72;;
73550;SDS011;61816;53.582;10.096;2022-10-31T01:38:53;74.75;;;37.67;;
73550;SDS011;61816;53.582;10.096;2022-10-31T01:41:21;91.38;;;41.90;;
73550;SDS011;61816;53.582;10.096;2022-10-31T01:49:08;84.13;;;40.92;;
73550;SDS011;61816;53.582;10.096;2022-10-31T01:51:36;97.95;;;41.65;;
73550;SDS011;61816;53.582;10.096;2022-10-31T01:54:04;108.57;;;47.15;;
73550;SDS011;61816;53.582;10.096;2022-10-31T01:56:33;102.90;;;47.22;;
73550;SDS011;61816;53.582;10.096;2022-10-31T01:59:04;105.57;;;49.15;;
73550;SDS011;61816;53.582;10.096;2022-10-31T02:01:31;107.53;;;47.08;;
73550;SDS011;61816;53.582;10.096;2022-10-31T02:03:57;113.60;;;51.08;;
73550;SDS011;61816;53.582;10.096;2022-10-31T02:06:26;100.15;;;49.70;;
73550;SDS011;61816;53.582;10.096;2022-10-31T02:08:54;107.82;;;50.35;;
73550;SDS011;61816;53.582;10.096;2022-10-31T02:11:23;118.70;;;51.17;;
73550;SDS011;61816;53.582;10.096;2022-10-31T02:13:48;109.95;;;49.65;;
73550;SDS011;61816;53.582;10.096;2022-10-31T02:16:14;129.55;;;53.70;;
73550;SDS011;61816;53.582;10.096;2022-10-31T02:18:39;121.15;;;52.42;;
73550;SDS011;61816;53.582;10.096;2022-10-31T02:23:57;121.85;;;50.83;;
73550;SDS011;61816;53.582;10.096;2022-10-31T02:26:41;118.90;;;50.65;;
73550;SDS011;61816;53.582;10.096;2022-10-31T02:40:16;98.40;;;47.95;;
73550;SDS011;61816;53.582;10.096;2022-10-31T02:45:28;122.80;;;51.38;;
73550;SDS011;61816;53.582;10.096;2022-10-31T02:50:28;100.88;;;45.55;;
73550;SDS011;61816;53.582;10.096;2022-10-31T02:52:58;113.85;;;49.20;;
73550;SDS011;61816;53.582;10.096;2022-10-31T02:57:53;90.15;;;43.45;;
73550;SDS011;61816;53.582;10.096;2022-10-31T03:00:22;118.50;;;50.83;;
73550;SDS011;61816;53.582;10.096;2022-10-31T03:10:59;111.63;;;46.17;;
73550;SDS011;61816;53.582;10.096;2022-10-31T03:13:35;106.25;;;48.70;;
73550;SDS011;61816;53.582;10.096;2022-10-31T03:16:22;102.68;;;42.45;;
73550;SDS011;61816;53.582;10.096;2022-10-31T03:19:04;114.88;;;50.35;;
73550;SDS011;61816;53.582;10.096;2022-10-31T03:21:39;108.78;;;44.92;;
73550;SDS011;61816;53.582;10.096;2022-10-31T03:24:09;126.63;;;50.58;;
73550;SDS011;61816;53.582;10.096;2022-10-31T03:26:37;121.15;;;50.38;;
73550;SDS011;61816;53.582;10.096;2022-10-31T03:29:05;128.48;;;52.42;;
73550;SDS011;61816;53.582;10.096;2022-10-31T03:31:33;119.60;;;49.40;;
73550;SDS011;61816;53.582;10.096;2022-10-31T03:34:03;91.55;;;42.80;;
73550;SDS011;61816;53.582;10.096;2022-10-31T03:36:30;99.10;;;45.15;;
73550;SDS011;61816;53.582;10.096;2022-10-31T03:38:59;125.47;;;52.55;;
73550;SDS011;61816;53.582;10.096;2022-10-31T03:41:28;116.45;;;50.90;;
73550;SDS011;61816;53.582;10.096;2022-10-31T03:44:05;106.00;;;44.65;;
73550;SDS011;61816;53.582;10.096;2022-10-31T03:46:35;122.07;;;51.78;;
73550;SDS011;61816;53.582;10.096;2022-10-31T03:49:01;119.10;;;49.97;;
73550;SDS011;61816;53.582;10.096;2022-10-31T03:51:37;138.00;;;53.53;;
73550;SDS011;61816;53.582;10.096;2022-10-31T03:54:13;134.18;;;52.55;;
73550;SDS011;61816;53.582;10.096;2022-10-31T03:56:55;123.35;;;51.20;;
73550;SDS011;61816;53.582;10.096;2022-10-31T03:59:35;115.47;;;49.28;;
73550;SDS011;61816;53.582;10.096;2022-10-31T04:02:07;125.90;;;55.73;;
73550;SDS011;61816;53.582;10.096;2022-10-31T04:04:35;149.57;;;56.75;;
73550;SDS011;61816;53.582;10.096;2022-10-31T04:07:02;150.98;;;58.35;;
73550;SDS011;61816;53.582;10.096;2022-10-31T04:09:31;125.13;;;52.60;;
73550;SDS011;61816;53.582;10.096;2022-10-31T04:12:00;158.15;;;58.20;;
73550;SDS011;61816;53.582;10.096;2022-10-31T04:14:28;151.98;;;57.55;;
73550;SDS011;61816;53.582;10.096;2022-10-31T04:16:56;127.55;;;49.30;;
73550;SDS011;61816;53.582;10.096;2022-10-31T04:19:21;160.88;;;57.88;;
73550;SDS011;61816;53.582;10.096;2022-10-31T04:21:48;142.32;;;53.67;;
73550;SDS011;61816;53.582;10.096;2022-10-31T04:24:13;155.02;;;58.80;;
73550;SDS011;61816;53.582;10.096;2022-10-31T04:26:39;145.75;;;57.38;;
73550;SDS011;61816;53.582;10.096;2022-10-31T04:29:04;145.77;;;53.65;;
73550;SDS011;61816;53.582;10.096;2022-10-31T04:31:29;145.57;;;56.25;;
73550;SDS011;61816;53.582;10.096;2022-10-31T04:33:55;146.40;;;56.92;;
73550;SDS011;61816;53.582;10.096;2022-10-31T04:36:20;122.00;;;50.50;;
73550;SDS011;61816;53.582;10.096;2022-10-31T04:38:45;146.38;;;54.97;;
73550;SDS011;61816;53.582;10.096;2022-10-31T04:41:11;142.55;;;55.92;;
73550;SDS011;61816;53.582;10.096;2022-10-31T04:43:36;125.10;;;48.63;;
73550;SDS011;61816;53.582;10.096;2022-10-31T04:46:02;151.07;;;54.63;;
73550;SDS011;61816;53.582;10.096;2022-10-31T04:48:27;139.18;;;47.63;;
73550;SDS011;61816;53.582;10.096;2022-10-31T04:50:57;143.18;;;53.17;;
73550;SDS011;61816;53.582;10.096;2022-10-31T04:53:24;135.45;;;52.22;;
73550;SDS011;61816;53.582;10.096;2022-10-31T04:55:49;144.65;;;53.78;;
73550;SDS011;61816;53.582;10.096;2022-10-31T04:58:15;143.77;;;55.40;;
73550;SDS011;61816;53.582;10.096;2022-10-31T05:00:40;140.88;;;48.47;;
73550;SDS011;61816;53.582;10.096;2022-10-31T05:03:05;130.77;;;52.80;;
73550;SDS011;61816;53.582;10.096;2022-10-31T05:05:31;120.40;;;50.50;;
73550;SDS011;61816;53.582;10.096;2022-10-31T05:07:56;134.82;;;51.33;;
73550;SDS011;61816;53.582;10.096;2022-10-31T05:10:23;144.00;;;56.63;;
73550;SDS011;61816;53.582;10.096;2022-10-31T05:12:51;154.40;;;59.30;;
73550;SDS011;61816;53.582;10.096;2022-10-31T05:15:21;160.38;;;56.92;;
73550;SDS011;61816;53.582;10.096;2022-10-31T05:17:48;129.45;;;51.65;;
73550;SDS011;61816;53.582;10.096;2022-10-31T05:20:14;195.98;;;67.53;;
73550;SDS011;61816;53.582;10.096;2022-10-31T05:22:42;136.10;;;54.85;;
73550;SDS011;61816;53.582;10.096;2022-10-31T05:25:09;163.30;;;60.42;;
73550;SDS011;61816;53.582;10.096;2022-10-31T05:27:34;131.68;;;55.03;;
73550;SDS011;61816;53.582;10.096;2022-10-31T05:29:59;159.85;;;59.30;;
73550;SDS011;61816;53.582;10.096;2022-10-31T05:32:25;142.02;;;55.47;;
73550;SDS011;61816;53.582;10.096;2022-10-31T05:34:50;182.93;;;65.55;;
73550;SDS011;61816;53.582;10.096;2022-10-31T05:37:15;177.10;;;63.08;;
73550;SDS011;61816;53.582;10.096;2022-10-31T05:39:41;158.93;;;58.88;;
73550;SDS011;61816;53.582;10.096;2022-10-31T05:42:06;172.15;;;61.67;;
73550;SDS011;61816;53.582;10.096;2022-10-31T05:44:31;180.68;;;62.33;;
73550;SDS011;61816;53.582;10.096;2022-10-31T05:46:56;159.13;;;57.78;;
73550;SDS011;61816;53.582;10.096;2022-10-31T05:49:22;185.32;;;65.93;;
73550;SDS011;61816;53.582;10.096;2022-10-31T05:51:47;201.70;;;64.47;;
73550;SDS011;61816;53.582;10.096;2022-10-31T05:54:13;188.57;;;64.55;;
73550;SDS011;61816;53.582;10.096;2022-10-31T05:56:38;188.40;;;62.95;;
73550;SDS011;61816;53.582;10.096;2022-10-31T05:59:03;218.00;;;67.50;;
73550;SDS011;61816;53.582;10.096;2022-10-31T06:01:29;249.23;;;73.03;;
73550;SDS011;61816;53.582;10.096;2022-10-31T06:03:54;215.10;;;67.05;;
73550;SDS011;61816;53.582;10.096;2022-10-31T06:06:20;215.02;;;63.17;;
73550;SDS011;61816;53.582;10.096;2022-10-31T06:08:45;207.60;;;64.45;;
73550;SDS011;61816;53.582;10.096;2022-10-31T06:11:10;228.55;;;67.78;;
73550;SDS011;61816;53.582;10.096;2022-10-31T06:13:35;211.82;;;65.55;;
73550;SDS011;61816;53.582;10.096;2022-10-31T06:16:01;234.75;;;66.22;;
73550;SDS011;61816;53.582;10.096;2022-10-31T06:18:26;241.43;;;69.45;;
73550;SDS011;61816;53.582;10.096;2022-10-31T06:20:51;217.93;;;63.67;;
73550;SDS011;61816;53.582;10.096;2022-10-31T06:23:17;217.20;;;65.97;;
73550;SDS011;61816;53.582;10.096;2022-10-31T06:25:42;289.15;;;72.78;;
73550;SDS011;61816;53.582;10.096;2022-10-31T06:28:07;258.05;;;70.03;;
73550;SDS011;61816;53.582;10.096;2022-10-31T06:30:33;301.13;;;70.90;;
73550;SDS011;61816;53.582;10.096;2022-10-31T06:33:02;272.50;;;71.30;;
73550;SDS011;61816;53.582;10.096;2022-10-31T06:35:28;322.27;;;80.18;;
73550;SDS011;61816;53.582;10.096;2022-10-31T06:37:54;258.45;;;67.80;;
73550;SDS011;61816;53.582;10.096;2022-10-31T06:40:19;310.13;;;74.93;;
73550;SDS011;61816;53.582;10.096;2022-10-31T06:42:45;241.93;;;62.58;;
73550;SDS011;61816;53.582;10.096;2022-10-31T06:45:10;222.35;;;63.30;;
73550;SDS011;61816;53.582;10.096;2022-10-31T06:47:35;229.20;;;60.65;;
73550;SDS011;61816;53.582;10.096;2022-10-31T06:50:01;263.35;;;67.78;;
73550;SDS011;61816;53.582;10.096;2022-10-31T06:52:26;271.23;;;68.18;;
73550;SDS011;61816;53.582;10.096;2022-10-31T06:54:51;268.58;;;66.40;;
73550;SDS011;61816;53.582;10.096;2022-10-31T06:57:17;228.50;;;63.45;;
73550;SDS011;61816;53.582;10.096;2022-10-31T06:59:42;195.32;;;54.10;;
73550;SDS011;61816;53.582;10.096;2022-10-31T07:02:11;215.23;;;60.50;;
73550;SDS011;61816;53.582;10.096;2022-10-31T07:04:36;201.80;;;59.05;;
73550;SDS011;61816;53.582;10.096;2022-10-31T07:07:02;217.82;;;60.70;;
73550;SDS011;61816;53.582;10.096;2022-10-31T07:09:27;210.88;;;58.65;;
73550;SDS011;61816;53.582;10.096;2022-10-31T07:11:53;205.13;;;55.53;;
73550;SDS011;61816;53.582;10.096;2022-10-31T07:14:18;152.25;;;50.40;;
73550;SDS011;61816;53.582;10.096;2022-10-31T07:16:44;181.10;;;56.20;;
73550;SDS011;61816;53.582;10.096;2022-10-31T07:19:13;203.70;;;58.97;;
73550;SDS011;61816;53.582;10.096;2022-10-31T07:21:38;180.50;;;55.67;;
73550;SDS011;61816;53.582;10.096;2022-10-31T07:24:04;161.55;;;53.38;;
73550;SDS011;61816;53.582;10.096;2022-10-31T07:26:29;148.95;;;47.38;;
73550;SDS011;61816;53.582;10.096;2022-10-31T07:28:54;182.68;;;55.42;;
73550;SDS011;61816;53.582;10.096;2022-10-31T07:31:20;137.38;;;47.83;;
73550;SDS011;61816;53.582;10.096;2022-10-31T07:33:45;148.18;;;49.15;;
73550;SDS011;61816;53.582;10.096;2022-10-31T07:36:11;165.27;;;50.05;;
73550;SDS011;61816;53.582;10.096;2022-10-31T07:38:36;129.85;;;45.25;;
73550;SDS011;61816;53.582;10.096;2022-10-31T07:41:01;167.52;;;50.28;;
73550;SDS011;61816;53.582;10.096;2022-10-31T07:43:27;162.07;;;50.50;;
73550;SDS011;61816;53.582;10.096;2022-10-31T07:45:52;147.48;;;47.63;;
73550;SDS011;61816;53.582;10.096;2022-10-31T07:48:18;156.43;;;47.42;;
73550;SDS011;61816;53.582;10.096;2022-10-31T07:50:44;151.70;;;50.80;;
73550;SDS011;61816;53.582;10.096;2022-10-31T07:53:11;130.25;;;44.75;;
73550;SDS011;61816;53.582;10.096;2022-10-31T07:55:38;130.85;;;44.22;;
73550;SDS011;61816;53.582;10.096;2022-10-31T07:58:04;138.07;;;46.72;;
73550;SDS011;61816;53.582;10.096;2022-10-31T08:00:32;162.88;;;54.08;;
73550;SDS011;61816;53.582;10.096;2022-10-31T08:02:59;152.80;;;52.83;;
73550;SDS011;61816;53.582;10.096;2022-10-31T08:05:26;122.72;;;44.97;;
73550;SDS011;61816;53.582;10.096;2022-10-31T08:07:52;126.07;;;44.00;;
73550;SDS011;61816;53.582;10.096;2022-10-31T08:10:18;153.00;;;52.88;;
73550;SDS011;61816;53.582;10.096;2022-10-31T08:12:43;130.30;;;46.33;;
73550;SDS011;61816;53.582;10.096;2022-10-31T08:15:08;149.70;;;48.72;;
73550;SDS011;61816;53.582;10.096;2022-10-31T08:17:35;109.43;;;39.88;;
73550;SDS011;61816;53.582;10.096;2022-10-31T08:20:01;116.50;;;42.42;;
73550;SDS011;61816;53.582;10.096;2022-10-31T08:22:26;150.48;;;51.33;;
73550;SDS011;61816;53.582;10.096;2022-10-31T08:24:52;164.25;;;51.95;;
73550;SDS011;61816;53.582;10.096;2022-10-31T08:27:17;126.97;;;45.47;;
73550;SDS011;61816;53.582;10.096;2022-10-31T08:29:42;143.50;;;49.20;;
73550;SDS011;61816;53.582;10.096;2022-10-31T08:32:08;129.05;;;45.28;;
73550;SDS011;61816;53.582;10.096;2022-10-31T08:34:33;116.45;;;41.20;;
73550;SDS011;61816;53.582;10.096;2022-10-31T08:36:58;108.75;;;42.33;;
73550;SDS011;61816;53.582;10.096;2022-10-31T08:39:24;114.03;;;42.60;;
73550;SDS011;61816;53.582;10.096;2022-10-31T08:41:49;129.02;;;45.65;;
73550;SDS011;61816;53.582;10.096;2022-10-31T08:44:15;114.13;;;43.92;;
73550;SDS011;61816;53.582;10.096;2022-10-31T08:46:40;121.78;;;45.72;;
73550;SDS011;61816;53.582;10.096;2022-10-31T08:49:06;124.22;;;44.45;;
73550;SDS011;61816;53.582;10.096;2022-10-31T08:51:31;111.78;;;41.72;;
73550;SDS011;61816;53.582;10.096;2022-10-31T08:53:57;100.93;;;39.15;;
73550;SDS011;61816;53.582;10.096;2022-10-31T08:56:22;77.95;;;35.30;;
73550;SDS011;61816;53.582;10.096;2022-10-31T08:58:48;90.57;;;36.75;;
73550;SDS011;61816;53.582;10.096;2022-10-31T09:01:13;86.35;;;35.65;;
73550;SDS011;61816;53.582;10.096;2022-10-31T09:03:39;81.57;;;36.28;;
73550;SDS011;61816;53.582;10.096;2022-10-31T09:06:04;75.25;;;33.65;;
73550;SDS011;61816;53.582;10.096;2022-10-31T09:08:33;81.07;;;35.58;;
73550;SDS011;61816;53.582;10.096;2022-10-31T09:10:59;71.10;;;31.90;;
73550;SDS011;61816;53.582;10.096;2022-10-31T09:13:25;69.30;;;30.08;;
73550;SDS011;61816;53.582;10.096;2022-10-31T09:15:50;89.97;;;33.75;;
73550;SDS011;61816;53.582;10.096;2022-10-31T09:18:17;87.28;;;32.22;;
73550;SDS011;61816;53.582;10.096;2022-10-31T09:20:45;86.20;;;35.05;;
73550;SDS011;61816;53.582;10.096;2022-10-31T09:23:12;79.03;;;33.55;;
73550;SDS011;61816;53.582;10.096;2022-10-31T09:25:39;82.35;;;32.33;;
73550;SDS011;61816;53.582;10.096;2022-10-31T09:28:05;71.93;;;28.67;;
73550;SDS011;61816;53.582;10.096;2022-10-31T09:30:34;64.63;;;29.73;;
73550;SDS011;61816;53.582;10.096;2022-10-31T09:33:01;50.33;;;22.90;;
73550;SDS011;61816;53.582;10.096;2022-10-31T09:35:28;52.33;;;25.98;;
73550;SDS011;61816;53.582;10.096;2022-10-31T09:37:57;56.35;;;25.17;;
73550;SDS011;61816;53.582;10.096;2022-10-31T09:40:25;57.92;;;24.70;;
73550;SDS011;61816;53.582;10.096;2022-10-31T09:43:13;52.75;;;25.40;;
73550;SDS011;61816;53.582;10.096;2022-10-31T09:46:44;57.55;;;26.30;;
73550;SDS011;61816;53.582;10.096;2022-10-31T09:49:16;61.15;;;25.35;;
73550;SDS011;61816;53.582;10.096;2022-10-31T09:55:00;47.65;;;22.10;;
73550;SDS011;61816;53.582;10.096;2022-10-31T09:57:34;59.47;;;26.77;;
73550;SDS011;61816;53.582;10.096;2022-10-31T10:00:03;58.50;;;26.52;;
73550;SDS011;61816;53.582;10.096;2022-10-31T10:02:32;54.75;;;24.77;;
73550;SDS011;61816;53.582;10.096;2022-10-31T10:05:04;49.45;;;21.52;;
73550;SDS011;61816;53.582;10.096;2022-10-31T10:07:40;38.83;;;20.15;;
73550;SDS011;61816;53.582;10.096;2022-10-31T10:10:25;43.10;;;21.13;;
73550;SDS011;61816;53.582;10.096;2022-10-31T10:18:30;52.78;;;21.77;;
73550;SDS011;61816;53.582;10.096;2022-10-31T10:23:54;42.28;;;21.48;;
73550;SDS011;61816;53.582;10.096;2022-10-31T10:26:21;39.70;;;21.52;;
73550;SDS011;61816;53.582;10.096;2022-10-31T10:31:51;42.70;;;21.08;;
73550;SDS011;61816;53.582;10.096;2022-10-31T10:34:27;39.15;;;20.50;;
73550;SDS011;61816;53.582;10.096;2022-10-31T10:37:08;45.13;;;20.52;;
73550;SDS011;61816;53.582;10.096;2022-10-31T10:40:02;41.67;;;20.80;;
73550;SDS011;61816;53.582;10.096;2022-10-31T10:42:36;41.65;;;21.55;;
73550;SDS011;61816;53.582;10.096;2022-10-31T10:45:20;48.33;;;19.95;;
73550;SDS011;61816;53.582;10.096;2022-10-31T10:51:00;35.53;;;21.15;;
73550;SDS011;61816;53.582;10.096;2022-10-31T10:53:45;36.80;;;18.90;;
73550;SDS011;61816;53.582;10.096;2022-10-31T10:59:30;30.60;;;16.23;;
73550;SDS011;61816;53.582;10.096;2022-10-31T11:01:55;37.47;;;18.35;;
73550;SDS011;61816;53.582;10.096;2022-10-31T11:04:31;32.38;;;17.98;;
73550;SDS011;61816;53.582;10.096;2022-10-31T11:07:05;33.90;;;17.08;;
73550;SDS011;61816;53.582;10.096;2022-10-31T11:09:33;33.92;;;16.35;;
73550;SDS011;61816;53.582;10.096;2022-10-31T11:12:00;30.02;;;14.80;;
73550;SDS011;61816;53.582;10.096;2022-10-31T11:14:33;30.48;;;15.18;;
73550;SDS011;61816;53.582;10.096;2022-10-31T11:17:17;34.05;;;15.75;;
73550;SDS011;61816;53.582;10.096;2022-10-31T11:20:00;26.00;;;15.48;;
73550;SDS011;61816;53.582;10.096;2022-10-31T11:22:27;43.85;;;20.48;;
73550;SDS011;61816;53.582;10.096;2022-10-31T11:24:52;45.10;;;20.08;;
73550;SDS011;61816;53.582;10.096;2022-10-31T11:27:21;42.28;;;19.05;;
73550;SDS011;61816;53.582;10.096;2022-10-31T11:29:48;45.75;;;21.42;;
73550;SDS011;61816;53.582;10.096;2022-10-31T11:32:19;34.85;;;17.85;;
73550;SDS011;61816;53.582;10.096;2022-10-31T11:34:47;35.45;;;17.20;;
73550;SDS011;61816;53.582;10.096;2022-10-31T11:37:26;35.50;;;19.52;;
73550;SDS011;61816;53.582;10.096;2022-10-31T11:39:57;32.45;;;16.85;;
73550;SDS011;61816;53.582;10.096;2022-10-31T11:42:27;46.95;;;19.05;;
73550;SDS011;61816;53.582;10.096;2022-10-31T11:44:59;39.17;;;19.92;;
73550;SDS011;61816;53.582;10.096;2022-10-31T11:47:31;43.08;;;19.50;;
73550;SDS011;61816;53.582;10.096;2022-10-31T11:50:02;42.83;;;20.45;;
73550;SDS011;61816;53.582;10.096;2022-10-31T11:52:36;37.95;;;19.95;;
73550;SDS011;61816;53.582;10.096;2022-10-31T11:55:26;41.13;;;21.02;;
73550;SDS011;61816;53.582;10.096;2022-10-31T11:58:02;40.88;;;21.45;;
73550;SDS011;61816;53.582;10.096;2022-10-31T12:00:30;51.88;;;25.52;;
73550;SDS011;61816;53.582;10.096;2022-10-31T12:03:10;45.50;;;25.83;;
73550;SDS011;61816;53.582;10.096;2022-10-31T12:05:39;42.13;;;23.88;;
73550;SDS011;61816;53.582;10.096;2022-10-31T12:08:11;43.08;;;23.90;;
73550;SDS011;61816;53.582;10.096;2022-10-31T12:10:43;50.15;;;26.10;;
73550;SDS011;61816;53.582;10.096;2022-10-31T12:15:41;49.13;;;25.67;;
73550;SDS011;61816;53.582;10.096;2022-10-31T12:18:17;45.10;;;25.23;;
73550;SDS011;61816;53.582;10.096;2022-10-31T12:20:56;40.63;;;25.80;;
73550;SDS011;61816;53.582;10.096;2022-10-31T12:40:19;48.95;;;27.75;;
73550;SDS011;61816;53.582;10.096;2022-10-31T12:45:36;46.05;;;27.15;;
73550;SDS011;61816;53.582;10.096;2022-10-31T13:02:02;59.47;;;28.75;;
73550;SDS011;61816;53.582;10.096;2022-10-31T13:07:14;44.05;;;25.75;;
73550;SDS011;61816;53.582;10.096;2022-10-31T13:12:27;37.05;;;22.48;;
73550;SDS011;61816;53.582;10.096;2022-10-31T13:14:57;44.53;;;23.02;;
73550;SDS011;61816;53.582;10.096;2022-10-31T13:17:30;41.25;;;24.73;;
73550;SDS011;61816;53.582;10.096;2022-10-31T13:20:14;46.45;;;25.15;;
73550;SDS011;61816;53.582;10.096;2022-10-31T13:22:42;44.10;;;25.95;;
73550;SDS011;61816;53.582;10.096;2022-10-31T13:25:15;47.53;;;23.95;;
73550;SDS011;61816;53.582;10.096;2022-10-31T13:30:22;43.55;;;24.38;;
73550;SDS011;61816;53.582;10.096;2022-10-31T13:32:55;42.08;;;25.70;;
73550;SDS011;61816;53.582;10.096;2022-10-31T13:35:33;47.17;;;24.20;;
73550;SDS011;61816;53.582;10.096;2022-10-31T13:38:23;43.30;;;24.75;;
73550;SDS011;61816;53.582;10.096;2022-10-31T13:46:26;37.83;;;22.60;;
73550;SDS011;61816;53.582;10.096;2022-10-31T13:49:00;36.30;;;21.15;;
73550;SDS011;61816;53.582;10.096;2022-10-31T13:51:32;40.05;;;21.10;;
73550;SDS011;61816;53.582;10.096;2022-10-31T13:54:18;40.47;;;22.27;;
73550;SDS011;61816;53.582;10.096;2022-10-31T13:56:50;34.72;;;20.42;;
73550;SDS011;61816;53.582;10.096;2022-10-31T13:59:18;39.92;;;22.98;;
73550;SDS011;61816;53.582;10.096;2022-10-31T14:01:47;37.15;;;21.63;;
73550;SDS011;61816;53.582;10.096;2022-10-31T14:04:25;52.42;;;23.70;;
73550;SDS011;61816;53.582;10.096;2022-10-31T14:06:56;42.85;;;22.15;;
73550;SDS011;61816;53.582;10.096;2022-10-31T14:09:34;39.88;;;21.27;;
73550;SDS011;61816;53.582;10.096;2022-10-31T14:15:13;39.50;;;19.90;;
73550;SDS011;61816;53.582;10.096;2022-10-31T14:28:53;38.03;;;21.50;;
73550;SDS011;61816;53.582;10.096;2022-10-31T14:33:58;41.20;;;23.35;;
73550;SDS011;61816;53.582;10.096;2022-10-31T14:36:29;41.00;;;22.58;;
73550;SDS011;61816;53.582;10.096;2022-10-31T14:39:10;40.42;;;22.38;;
73550;SDS011;61816;53.582;10.096;2022-10-31T14:42:04;38.10;;;21.58;;
73550;SDS011;61816;53.582;10.096;2022-10-31T14:47:33;39.55;;;18.98;;
73550;SDS011;61816;53.582;10.096;2022-10-31T14:53:18;37.45;;;20.50;;
73550;SDS011;61816;53.582;10.096;2022-10-31T14:55:49;36.47;;;19.50;;
73550;SDS011;61816;53.582;10.096;2022-10-31T14:58:19;41.50;;;20.92;;
73550;SDS011;61816;53.582;10.096;2022-10-31T15:00:59;41.20;;;20.85;;
73550;SDS011;61816;53.582;10.096;2022-10-31T15:03:44;39.53;;;21.83;;
73550;SDS011;61816;53.582;10.096;2022-10-31T15:06:14;39.65;;;21.23;;
73550;SDS011;61816;53.582;10.096;2022-10-31T15:08:46;40.10;;;22.92;;
73550;SDS011;61816;53.582;10.096;2022-10-31T15:11:15;36.83;;;21.67;;
73550;SDS011;61816;53.582;10.096;2022-10-31T15:13:41;49.00;;;21.92;;
73550;SDS011;61816;53.582;10.096;2022-10-31T15:16:21;44.15;;;22.23;;
73550;SDS011;61816;53.582;10.096;2022-10-31T15:18:55;49.05;;;25.65;;
73550;SDS011;61816;53.582;10.096;2022-10-31T15:21:23;42.80;;;21.15;;
73550;SDS011;61816;53.582;10.096;2022-10-31T15:23:52;44.35;;;22.58;;
73550;SDS011;61816;53.582;10.096;2022-10-31T15:26:20;42.83;;;24.42;;
73550;SDS011;61816;53.582;10.096;2022-10-31T15:28:57;47.13;;;23.58;;
73550;SDS011;61816;53.582;10.096;2022-10-31T15:31:27;49.13;;;25.20;;
73550;SDS011;61816;53.582;10.096;2022-10-31T15:33:53;45.25;;;26.33;;
73550;SDS011;61816;53.582;10.096;2022-10-31T15:36:23;47.13;;;24.05;;
73550;SDS011;61816;53.582;10.096;2022-10-31T15:38:50;49.00;;;26.02;;
73550;SDS011;61816;53.582;10.096;2022-10-31T15:41:23;48.45;;;26.58;;
73550;SDS011;61816;53.582;10.096;2022-10-31T15:43:54;47.25;;;25.05;;
73550;SDS011;61816;53.582;10.096;2022-10-31T15:46:22;48.95;;;25.35;;
73550;SDS011;61816;53.582;10.096;2022-10-31T15:48:47;49.97;;;25.70;;
73550;SDS011;61816;53.582;10.096;2022-10-31T15:51:13;44.10;;;24.80;;
73550;SDS011;61816;53.582;10.096;2022-10-31T15:53:49;52.55;;;26.65;;
73550;SDS011;61816;53.582;10.096;2022-10-31T15:56:20;51.45;;;25.35;;
73550;SDS011;61816;53.582;10.096;2022-10-31T15:58:48;54.83;;;26.45;;
73550;SDS011;61816;53.582;10.096;2022-10-31T16:01:26;56.20;;;26.33;;
73550;SDS011;61816;53.582;10.096;2022-10-31T16:06:30;45.53;;;24.30;;
73550;SDS011;61816;53.582;10.096;2022-10-31T16:08:58;57.63;;;24.75;;
73550;SDS011;61816;53.582;10.096;2022-10-31T16:11:32;57.22;;;27.17;;
73550;SDS011;61816;53.582;10.096;2022-10-31T16:14:05;51.70;;;25.67;;
73550;SDS011;61816;53.582;10.096;2022-10-31T16:16:42;57.80;;;28.63;;
73550;SDS011;61816;53.582;10.096;2022-10-31T16:19:18;55.08;;;26.17;;
73550;SDS011;61816;53.582;10.096;2022-10-31T16:21:46;48.45;;;25.13;;
73550;SDS011;61816;53.582;10.096;2022-10-31T16:24:23;60.60;;;26.90;;
73550;SDS011;61816;53.582;10.096;2022-10-31T16:26:52;55.00;;;24.80;;
73550;SDS011;61816;53.582;10.096;2022-10-31T16:29:33;60.70;;;27.50;;
73550;SDS011;61816;53.582;10.096;2022-10-31T16:32:03;55.67;;;25.92;;